Odell, Oregon
Current Conditions -  °F | °C
As of 1:39 PM on Friday 28 Nov 2014 (Local Time) from K4S2 Reporting Station
Moderate Rain Moderate Rain  
Wind Chill: 54°   Ceiling: 3900
Heat Index: 54°   Visibility: 10mi
Dew Point: 52°   Wind: 0mph
Humidity: 94%   Direction: NA
Pressure: 29.47"   Gusts: NA
Location:  45.63°N, 121.55°W
Report Text: K4S2 282139Z AUTO 00000KT 10SM RA SCT032 BKN039 OVC045 12/11 A2947 RMK AO2 SLP994 T01200110
Loading
Personal Weather Stations






























Interactive Weather Map New forecast layout! Learn more

10-Day Weather Forecast

Advertisements
Track Severe Weather on mobile